createdAt,value
2019-04-14T00:01:47.727Z,16.80
2019-04-14T00:04:44.426Z,17.40
2019-04-14T00:07:36.305Z,17.07
2019-04-14T00:10:27.434Z,20.93
2019-04-14T00:13:17.863Z,17.87
2019-04-14T00:16:09.505Z,17.47
2019-04-14T00:19:00.803Z,22.67
2019-04-14T00:21:52.281Z,17.37
2019-04-14T00:24:44.493Z,17.10
2019-04-14T00:27:34.854Z,18.27
2019-04-14T00:30:27.304Z,16.37
2019-04-14T00:33:19.978Z,19.90
2019-04-14T00:36:16.135Z,19.60
2019-04-14T00:39:18.887Z,25.93
2019-04-14T00:42:22.043Z,17.00
2019-04-14T00:45:32.109Z,18.00
2019-04-14T00:48:18.939Z,15.63
2019-04-14T00:51:07.407Z,18.23
2019-04-14T00:53:58.651Z,17.80
2019-04-14T00:56:50.279Z,20.60
2019-04-14T00:59:41.884Z,18.53
2019-04-14T01:02:33.900Z,19.87
2019-04-14T01:05:26.261Z,16.80
2019-04-14T01:08:18.518Z,17.87
2019-04-14T01:11:09.590Z,17.97
2019-04-14T01:14:00.053Z,18.23
2019-04-14T01:16:51.722Z,18.30
2019-04-14T01:19:43.989Z,22.20
2019-04-14T01:22:35.831Z,16.77
2019-04-14T01:25:26.229Z,18.10
2019-04-14T01:28:17.870Z,18.17
2019-04-14T01:31:09.868Z,18.03
2019-04-14T01:34:01.972Z,20.87
2019-04-14T01:36:54.047Z,18.90
2019-04-14T01:39:46.035Z,19.80
2019-04-14T01:42:37.900Z,18.30
2019-04-14T01:45:29.537Z,21.07
2019-04-14T01:48:21.406Z,18.53
2019-04-14T01:51:31.541Z,22.07
2019-04-14T01:54:49.686Z,21.33
2019-04-14T01:57:48.253Z,18.80
2019-04-14T02:00:57.582Z,19.33
2019-04-14T02:03:49.772Z,19.27
2019-04-14T02:06:41.893Z,21.90
2019-04-14T02:09:32.105Z,18.87
2019-04-14T02:12:23.504Z,20.90
2019-04-14T02:15:15.415Z,19.17
2019-04-14T02:18:07.707Z,21.50
2019-04-14T02:20:59.932Z,17.97
2019-04-14T02:23:51.893Z,19.60
2019-04-14T02:26:43.938Z,16.13
2019-04-14T02:29:36.118Z,16.10
2019-04-14T02:35:47.118Z,16.60
2019-04-14T02:38:45.289Z,15.60
2019-04-14T02:41:35.955Z,15.67
2019-04-14T02:44:24.296Z,15.77
2019-04-14T02:47:48.746Z,15.50
2019-04-14T02:50:05.212Z,15.10
2019-04-14T02:53:01.754Z,18.23
2019-04-14T02:55:52.424Z,19.07
2019-04-14T02:58:50.005Z,16.40
2019-04-14T03:01:35.386Z,14.87
2019-04-14T03:04:25.783Z,17.20
2019-04-14T03:07:23.006Z,14.60
2019-04-14T03:10:02.287Z,14.23
2019-04-14T03:13:09.215Z,14.80
2019-04-14T03:15:56.804Z,16.77
2019-04-14T03:18:57.876Z,15.10
2019-04-14T03:22:26.794Z,14.33
2019-04-14T03:25:15.241Z,14.67
2019-04-14T03:28:33.624Z,15.47
2019-04-14T03:31:52.662Z,15.43
2019-04-14T03:34:32.702Z,15.47
2019-04-14T03:37:30.897Z,14.67
2019-04-14T03:42:59.038Z,13.87
2019-04-14T03:45:55.069Z,14.20
2019-04-14T03:48:55.852Z,15.43
2019-04-14T03:51:36.952Z,13.90
2019-04-14T03:54:08.546Z,14.63
2019-04-14T03:56:53.892Z,17.80
2019-04-14T03:59:45.678Z,14.20
2019-04-14T04:02:37.926Z,14.77
2019-04-14T04:05:30.282Z,14.53
2019-04-14T04:08:22.416Z,15.00
2019-04-14T04:11:13.532Z,14.90
2019-04-14T04:14:05.265Z,15.33
2019-04-14T04:17:19.011Z,14.77
2019-04-14T04:20:37.365Z,15.37
2019-04-14T04:23:40.290Z,14.13
2019-04-14T04:26:53.884Z,16.60
2019-04-14T04:30:03.683Z,14.90
2019-04-14T04:33:13.702Z,15.70
2019-04-14T04:36:13.938Z,15.97
2019-04-14T04:39:10.691Z,17.53
2019-04-14T04:42:02.572Z,16.90
2019-04-14T04:44:53.323Z,14.10
2019-04-14T04:47:44.799Z,15.53
2019-04-14T04:50:36.850Z,15.27
2019-04-14T04:53:28.810Z,15.33
2019-04-14T04:56:20.801Z,17.90
2019-04-14T04:59:12.684Z,15.13
2019-04-14T05:02:04.732Z,13.63
2019-04-14T05:04:56.628Z,14.07
2019-04-14T05:07:49.009Z,14.40
2019-04-14T05:10:44.010Z,15.10
2019-04-14T05:13:38.184Z,13.70
2019-04-14T05:16:28.579Z,15.20
2019-04-14T05:19:25.738Z,13.07
2019-04-14T05:22:11.297Z,12.70
2019-04-14T05:25:03.606Z,12.97
2019-04-14T05:27:54.338Z,12.20
2019-04-14T05:30:45.818Z,11.93
2019-04-14T05:33:36.211Z,12.27
2019-04-14T05:36:28.128Z,12.60
2019-04-14T05:39:19.978Z,12.27
2019-04-14T05:42:17.793Z,12.30
2019-04-14T05:45:04.592Z,12.23
2019-04-14T05:47:54.962Z,12.10
2019-04-14T05:50:45.104Z,11.63
2019-04-14T05:53:35.713Z,11.53
2019-04-14T05:56:27.482Z,11.27
2019-04-14T05:59:18.227Z,11.03
2019-04-14T06:02:09.421Z,10.83
2019-04-14T06:04:59.730Z,11.27
2019-04-14T06:07:51.290Z,11.70
2019-04-14T06:10:42.108Z,11.13
2019-04-14T06:13:32.462Z,11.20
2019-04-14T06:16:22.807Z,11.00
2019-04-14T06:19:13.886Z,11.00
2019-04-14T06:22:03.994Z,10.43
2019-04-14T06:24:54.514Z,10.80
2019-04-14T06:27:44.723Z,11.23
2019-04-14T06:31:03.744Z,11.00
2019-04-14T06:33:58.831Z,10.73
2019-04-14T06:37:18.119Z,10.80
2019-04-14T06:40:08.586Z,10.57
2019-04-14T06:42:58.985Z,10.97
2019-04-14T06:45:49.886Z,10.50
2019-04-14T06:48:40.137Z,11.17
2019-04-14T06:51:31.357Z,11.07
2019-04-14T06:54:21.821Z,11.30
2019-04-14T06:57:12.007Z,11.77
2019-04-14T07:00:02.153Z,11.33
2019-04-14T07:02:54.330Z,11.20
2019-04-14T07:05:45.888Z,12.60
2019-04-14T07:08:36.995Z,11.10
2019-04-14T07:11:27.279Z,11.23
2019-04-14T07:14:17.838Z,11.10
2019-04-14T07:17:08.890Z,11.03
2019-04-14T07:20:02.221Z,11.20
2019-04-14T07:22:53.730Z,10.20
2019-04-14T07:25:44.262Z,10.80
2019-04-14T07:28:35.361Z,10.73
2019-04-14T07:31:39.187Z,11.00
2019-04-14T07:34:40.466Z,10.60
2019-04-14T07:37:43.053Z,10.30
2019-04-14T07:40:51.773Z,10.10
2019-04-14T07:43:57.319Z,10.60
2019-04-14T07:46:53.964Z,10.40
2019-04-14T07:50:13.751Z,10.70
2019-04-14T07:53:11.319Z,10.93
2019-04-14T07:56:27.990Z,10.67
2019-04-14T07:59:46.375Z,10.90
2019-04-14T08:02:44.454Z,10.50
2019-04-14T08:05:39.146Z,10.27
2019-04-14T08:08:29.323Z,10.43
2019-04-14T08:11:20.700Z,10.63
2019-04-14T08:14:11.814Z,10.80
2019-04-14T08:17:03.158Z,9.97
2019-04-14T08:19:53.513Z,9.90
2019-04-14T08:22:44.939Z,10.10
2019-04-14T08:25:35.243Z,10.70
2019-04-14T08:28:25.506Z,10.93
2019-04-14T08:31:15.770Z,10.40
2019-04-14T08:34:06.663Z,9.70
2019-04-14T08:36:57.847Z,11.03
2019-04-14T08:39:50.630Z,9.83
2019-04-14T08:42:58.743Z,10.30
2019-04-14T08:45:53.202Z,10.50
2019-04-14T08:49:06.342Z,10.20
2019-04-14T08:52:13.076Z,10.43
2019-04-14T08:55:11.760Z,10.77
2019-04-14T08:58:07.207Z,10.50
2019-04-14T09:01:11.793Z,10.87
2019-04-14T09:04:15.398Z,10.70
2019-04-14T09:07:21.095Z,11.00
2019-04-14T09:10:17.507Z,10.80
2019-04-14T09:13:07.844Z,10.50
2019-04-14T09:15:58.978Z,11.27
2019-04-14T09:18:49.361Z,11.50
2019-04-14T09:21:41.404Z,11.53
2019-04-14T09:24:32.463Z,11.00
2019-04-14T09:27:23.520Z,11.20
2019-04-14T09:30:15.006Z,11.00
2019-04-14T09:33:05.243Z,11.57
2019-04-14T09:35:56.124Z,11.40
2019-04-14T09:38:47.414Z,11.47
2019-04-14T09:41:37.873Z,12.63
2019-04-14T09:44:28.218Z,21.60
2019-04-14T09:47:18.524Z,10.80
2019-04-14T09:50:08.953Z,11.07
2019-04-14T09:52:59.725Z,11.07
2019-04-14T09:55:50.896Z,10.70
2019-04-14T09:58:42.201Z,10.97
2019-04-14T10:01:33.090Z,11.10
2019-04-14T10:04:23.285Z,10.50
2019-04-14T10:07:14.430Z,11.03
2019-04-14T10:10:05.365Z,10.40
2019-04-14T10:12:56.128Z,11.37
2019-04-14T10:15:46.597Z,10.77
2019-04-14T10:18:37.513Z,10.87
2019-04-14T10:21:28.929Z,10.77
2019-04-14T10:24:20.330Z,10.27
2019-04-14T10:27:10.883Z,10.40
2019-04-14T10:30:01.350Z,10.73
2019-04-14T10:32:52.518Z,10.40
2019-04-14T10:35:42.689Z,9.80
2019-04-14T10:38:33.922Z,10.50
2019-04-14T10:41:24.861Z,10.20
2019-04-14T10:44:15.267Z,10.30
2019-04-14T10:47:06.620Z,10.53
2019-04-14T10:49:56.782Z,10.27
2019-04-14T10:52:47.648Z,10.67
2019-04-14T10:55:37.715Z,10.03
2019-04-14T10:58:28.986Z,9.80
2019-04-14T11:01:19.605Z,9.70
2019-04-14T11:04:10.827Z,10.53
2019-04-14T11:07:17.065Z,10.03
2019-04-14T11:10:09.637Z,10.00
2019-04-14T11:13:00.834Z,10.67
2019-04-14T11:15:51.769Z,10.43
2019-04-14T11:18:41.817Z,10.10
2019-04-14T11:21:42.489Z,10.30
2019-04-14T11:24:24.882Z,10.20
2019-04-14T11:27:16.243Z,10.63
2019-04-14T11:30:10.200Z,10.30
2019-04-14T11:33:11.984Z,10.20
2019-04-14T11:36:37.450Z,10.10
2019-04-14T11:39:27.941Z,10.20
2019-04-14T11:42:18.524Z,10.57
2019-04-14T11:45:09.020Z,10.70
2019-04-14T11:47:59.084Z,10.57
2019-04-14T11:50:50.227Z,10.87
2019-04-14T11:53:40.755Z,11.00
2019-04-14T11:56:31.415Z,10.40
2019-04-14T11:59:30.917Z,11.13
2019-04-14T12:02:26.544Z,10.60
2019-04-14T12:05:38.792Z,11.17
2019-04-14T12:08:37.468Z,11.33
2019-04-14T12:11:27.941Z,10.87
2019-04-14T12:14:18.389Z,11.03
2019-04-14T12:17:08.536Z,11.40
2019-04-14T12:19:59.043Z,11.43
2019-04-14T12:22:50.353Z,11.50
2019-04-14T12:25:41.020Z,11.40
2019-04-14T12:28:33.826Z,11.20
2019-04-14T12:31:26.527Z,11.53
2019-04-14T12:34:18.797Z,11.90
2019-04-14T12:37:09.568Z,12.17
2019-04-14T12:40:02.668Z,11.90
2019-04-14T12:43:03.876Z,12.27
2019-04-14T12:46:16.321Z,12.63
2019-04-14T12:49:11.599Z,11.97
2019-04-14T12:52:25.545Z,12.47
2019-04-14T12:55:16.053Z,14.10
2019-04-14T12:58:11.305Z,15.37
2019-04-14T13:01:06.991Z,12.50
2019-04-14T13:03:57.761Z,14.10
2019-04-14T13:06:48.988Z,13.23
2019-04-14T13:09:39.740Z,16.07
2019-04-14T13:12:30.194Z,12.77
2019-04-14T13:15:21.053Z,13.40
2019-04-14T13:18:12.540Z,14.20
2019-04-14T13:21:04.045Z,13.90
2019-04-14T13:23:55.304Z,12.97
2019-04-14T13:26:45.880Z,15.03
2019-04-14T13:29:37.394Z,17.13
2019-04-14T13:32:35.746Z,15.43
2019-04-14T13:35:20.227Z,18.30
2019-04-14T13:38:10.715Z,19.60
2019-04-14T13:41:01.871Z,16.33
2019-04-14T13:43:52.030Z,15.60
2019-04-14T13:46:42.581Z,16.80
2019-04-14T13:49:33.394Z,17.37
2019-04-14T13:52:24.323Z,15.73
2019-04-14T13:55:15.206Z,24.47
2019-04-14T13:58:06.190Z,24.40
2019-04-14T14:00:57.663Z,19.87
2019-04-14T14:03:49.088Z,21.00
2019-04-14T14:06:39.931Z,17.77
2019-04-14T14:09:30.158Z,21.17
2019-04-14T14:12:25.937Z,20.80
2019-04-14T14:15:32.025Z,20.50
2019-04-14T14:18:36.000Z,21.43
2019-04-14T14:21:35.132Z,21.00
2019-04-14T14:24:42.129Z,20.67
2019-04-14T14:27:32.803Z,18.53
2019-04-14T14:30:23.833Z,20.20
2019-04-14T14:33:14.613Z,19.90
2019-04-14T14:36:05.299Z,20.83
2019-04-14T14:38:56.552Z,22.10
2019-04-14T14:41:47.649Z,20.97
2019-04-14T14:44:43.013Z,23.77
2019-04-14T14:47:34.388Z,23.70
2019-04-14T14:50:31.863Z,20.30
2019-04-14T14:53:22.829Z,17.97
2019-04-14T14:56:13.999Z,20.30
2019-04-14T14:59:05.820Z,20.87
2019-04-14T15:01:56.471Z,21.90
2019-04-14T15:04:47.061Z,20.23
2019-04-14T15:07:37.185Z,19.70
2019-04-14T15:10:27.642Z,17.97
2019-04-14T15:13:20.530Z,18.73
2019-04-14T15:16:11.945Z,20.27
2019-04-14T15:19:02.131Z,16.90
2019-04-14T15:21:53.443Z,17.10
2019-04-14T15:24:44.640Z,23.27
2019-04-14T15:27:35.195Z,19.17
2019-04-14T15:30:26.424Z,20.00
2019-04-14T15:33:17.388Z,18.30
2019-04-14T15:36:08.457Z,19.43
2019-04-14T15:38:58.947Z,26.63
2019-04-14T15:41:50.109Z,22.90
2019-04-14T15:44:41.436Z,20.50
2019-04-14T15:47:31.802Z,19.60
2019-04-14T15:50:23.015Z,19.30
2019-04-14T15:53:13.779Z,23.37
2019-04-14T15:56:06.266Z,20.70
2019-04-14T15:59:05.073Z,20.07
2019-04-14T16:02:10.779Z,19.10
2019-04-14T16:05:29.369Z,23.17
2019-04-14T16:08:30.600Z,24.07
2019-04-14T16:11:28.463Z,21.40
2019-04-14T16:14:48.141Z,21.77
2019-04-14T16:18:00.491Z,18.97
2019-04-14T16:20:54.413Z,21.50
2019-04-14T16:23:50.637Z,23.37
2019-04-14T16:26:50.192Z,21.20
2019-04-14T16:29:48.696Z,20.50
2019-04-14T16:32:58.303Z,21.53
2019-04-14T16:35:48.884Z,19.30
2019-04-14T16:38:40.483Z,21.33
2019-04-14T16:41:30.991Z,20.03
2019-04-14T16:44:21.729Z,21.17
2019-04-14T16:47:13.438Z,20.00
2019-04-14T16:50:04.410Z,23.40
2019-04-14T16:53:14.817Z,20.20
2019-04-14T16:56:23.313Z,21.07
2019-04-14T16:59:16.102Z,20.90
2019-04-14T17:02:11.224Z,19.20
2019-04-14T17:04:58.936Z,20.10
2019-04-14T17:07:49.510Z,20.30
2019-04-14T17:10:39.877Z,23.53
2019-04-14T17:13:33.640Z,19.57
2019-04-14T17:16:48.054Z,21.10
2019-04-14T17:19:49.328Z,20.67
2019-04-14T17:22:47.291Z,21.83
2019-04-14T17:25:52.119Z,23.37
2019-04-14T17:29:11.447Z,21.77
2019-04-14T17:32:21.773Z,24.90
2019-04-14T17:35:21.749Z,22.70
2019-04-14T17:38:30.173Z,25.33
2019-04-14T17:41:27.835Z,22.20
2019-04-14T17:44:24.702Z,19.73
2019-04-14T17:47:35.117Z,23.73
2019-04-14T17:50:40.650Z,20.30
2019-04-14T17:53:44.955Z,21.37
2019-04-14T17:56:50.454Z,24.40
2019-04-14T18:00:19.752Z,20.40
2019-04-14T18:03:29.186Z,24.00
2019-04-14T18:06:31.262Z,23.13
2019-04-14T18:09:45.579Z,23.50
2019-04-14T18:12:57.544Z,22.03
2019-04-14T18:16:07.313Z,23.27
2019-04-14T18:19:16.751Z,21.60
2019-04-14T18:22:08.073Z,21.40
2019-04-14T18:24:59.206Z,19.63
2019-04-14T18:28:05.185Z,23.77
2019-04-14T18:31:08.700Z,21.17
2019-04-14T18:34:17.795Z,22.23
2019-04-14T18:37:27.108Z,21.43
2019-04-14T18:40:28.350Z,19.47
2019-04-14T18:43:52.606Z,20.30
2019-04-14T18:46:48.622Z,23.60
2019-04-14T18:49:58.883Z,21.43
2019-04-14T18:53:08.517Z,21.53
2019-04-14T18:56:24.916Z,22.77
2019-04-14T18:59:46.710Z,22.70
2019-04-14T19:02:37.306Z,20.23
2019-04-14T19:05:27.865Z,20.57
2019-04-14T19:08:19.651Z,21.33
2019-04-14T19:11:45.247Z,24.60
2019-04-14T19:14:38.787Z,18.20
2019-04-14T19:17:49.410Z,22.10
2019-04-14T19:20:43.189Z,19.80
2019-04-14T19:23:33.666Z,21.33
2019-04-14T19:26:25.721Z,19.70
2019-04-14T19:29:16.598Z,19.77
2019-04-14T19:32:07.643Z,22.00
2019-04-14T19:34:58.323Z,18.50
2019-04-14T19:37:49.892Z,20.83
2019-04-14T19:40:40.660Z,18.17
2019-04-14T19:43:33.603Z,20.80
2019-04-14T19:46:25.587Z,21.97
2019-04-14T19:49:17.394Z,18.60
2019-04-14T19:52:08.053Z,19.50
2019-04-14T19:54:59.613Z,20.37
2019-04-14T19:57:50.819Z,27.93
2019-04-14T20:00:42.405Z,18.63
2019-04-14T20:03:33.915Z,18.43
2019-04-14T20:06:24.478Z,17.53
2019-04-14T20:09:15.799Z,22.57
2019-04-14T20:12:07.240Z,16.27
2019-04-14T20:14:58.625Z,17.90
2019-04-14T20:18:01.931Z,18.30
2019-04-14T20:21:13.071Z,19.90
2019-04-14T20:24:15.115Z,19.80
2019-04-14T20:27:17.140Z,18.43
2019-04-14T20:30:12.851Z,17.97
2019-04-14T20:33:04.348Z,18.80
2019-04-14T20:35:54.941Z,17.20
2019-04-14T20:38:45.890Z,19.13
2019-04-14T20:41:36.431Z,18.20
2019-04-14T20:44:27.602Z,18.07
2019-04-14T20:47:18.822Z,18.77
2019-04-14T20:50:09.525Z,20.10
2019-04-14T20:53:01.021Z,20.93
2019-04-14T20:55:51.589Z,20.83
2019-04-14T20:58:42.146Z,18.23
2019-04-14T21:01:35.149Z,17.73
2019-04-14T21:04:32.951Z,17.37
2019-04-14T21:07:41.090Z,16.60
2019-04-14T21:10:40.871Z,17.63
2019-04-14T21:13:38.659Z,17.33
2019-04-14T21:16:34.576Z,16.50
2019-04-14T21:19:41.768Z,17.10
2019-04-14T21:22:50.669Z,17.77
2019-04-14T21:26:06.482Z,18.67
2019-04-14T21:29:15.581Z,16.77
2019-04-14T21:32:22.284Z,15.57
2019-04-14T21:35:22.520Z,18.30
2019-04-14T21:38:30.872Z,14.70
2019-04-14T21:41:24.339Z,14.67
2019-04-14T21:44:14.967Z,16.13
2019-04-14T21:47:06.125Z,16.07
2019-04-14T21:49:58.707Z,16.87
2019-04-14T21:52:50.245Z,15.40
2019-04-14T21:55:41.414Z,18.63
2019-04-14T21:58:47.734Z,16.50
2019-04-14T22:02:06.527Z,15.73
2019-04-14T22:05:09.948Z,14.70
2019-04-14T22:08:25.629Z,15.43
2019-04-14T22:11:19.159Z,16.20
2019-04-14T22:14:09.620Z,21.30
2019-04-14T22:16:59.900Z,16.30
2019-04-14T22:19:51.296Z,15.53
2019-04-14T22:22:42.274Z,14.53
2019-04-14T22:25:33.601Z,14.60
2019-04-14T22:28:24.723Z,15.83
2019-04-14T22:31:14.898Z,15.77
2019-04-14T22:34:05.268Z,18.30
2019-04-14T22:36:56.336Z,15.20
2019-04-14T22:39:47.204Z,16.53
2019-04-14T22:42:38.360Z,17.60
2019-04-14T22:45:29.210Z,15.13
2019-04-14T22:48:19.797Z,18.80
2019-04-14T22:51:11.302Z,18.70
2019-04-14T22:54:02.945Z,15.27
2019-04-14T22:56:54.256Z,15.60
2019-04-14T22:59:45.392Z,14.63
2019-04-14T23:02:47.853Z,14.20
2019-04-14T23:05:55.584Z,14.73
2019-04-14T23:08:56.230Z,15.77
2019-04-14T23:11:57.895Z,14.13
2019-04-14T23:15:00.079Z,14.13
2019-04-14T23:18:00.214Z,16.03
2019-04-14T23:21:09.605Z,14.20
2019-04-14T23:24:09.051Z,15.63
2019-04-14T23:26:59.995Z,16.17
2019-04-14T23:29:51.363Z,13.90
2019-04-14T23:32:42.134Z,19.50
2019-04-14T23:35:32.521Z,17.10
2019-04-14T23:38:22.575Z,16.60
2019-04-14T23:41:13.908Z,14.00
2019-04-14T23:44:05.342Z,16.20
2019-04-14T23:46:56.512Z,14.90
2019-04-14T23:49:47.599Z,14.77
2019-04-14T23:52:38.485Z,15.60
2019-04-14T23:55:29.326Z,15.70
2019-04-14T23:58:20.551Z,15.53
